createdAt,value
2023-04-23T00:03:37.614Z,100863.78
2023-04-23T00:06:08.302Z,100867.73
2023-04-23T00:08:41.773Z,100864.52
2023-04-23T00:11:11.343Z,100866.16
2023-04-23T00:13:41.020Z,100864.04
2023-04-23T00:16:10.552Z,100863.36
2023-04-23T00:18:40.432Z,100865.35
2023-04-23T00:21:08.570Z,100865.00
2023-04-23T00:23:38.308Z,100861.06
2023-04-23T00:26:07.022Z,100860.70
2023-04-23T00:28:35.965Z,100857.64
2023-04-23T00:31:04.452Z,100857.66
2023-04-23T00:33:32.642Z,100855.35
2023-04-23T00:36:02.287Z,100854.11
2023-04-23T00:38:31.051Z,100857.66
2023-04-23T00:41:00.020Z,100855.50
2023-04-23T00:43:28.827Z,100855.50
2023-04-23T00:45:58.296Z,100852.81
2023-04-23T00:48:28.937Z,100851.92
2023-04-23T00:51:05.754Z,100846.56
2023-04-23T00:53:34.396Z,100849.25
2023-04-23T00:56:05.518Z,100849.77
2023-04-23T00:58:34.805Z,100844.95
2023-04-23T01:01:03.500Z,100844.95
2023-04-23T01:03:35.588Z,100841.17
2023-04-23T01:06:05.301Z,100835.96
2023-04-23T01:08:35.275Z,100832.91
2023-04-23T01:11:04.437Z,100834.51
2023-04-23T01:13:32.740Z,100828.08
2023-04-23T01:16:02.267Z,100826.29
2023-04-23T01:18:30.891Z,100828.27
2023-04-23T01:20:59.478Z,100825.77
2023-04-23T01:23:28.320Z,100824.33
2023-04-23T01:25:57.347Z,100821.83
2023-04-23T01:28:26.329Z,100823.61
2023-04-23T01:30:56.208Z,100820.23
2023-04-23T01:33:25.029Z,100820.61
2023-04-23T01:35:55.585Z,100824.91
2023-04-23T01:38:25.430Z,100825.48
2023-04-23T01:40:53.674Z,100823.88
2023-04-23T01:43:23.128Z,100824.27
2023-04-23T01:45:51.879Z,100832.72
2023-04-23T01:48:21.381Z,100830.81
2023-04-23T01:50:51.815Z,100829.94
2023-04-23T01:53:20.590Z,100827.63
2023-04-23T01:55:51.352Z,100828.38
2023-04-23T01:58:19.573Z,100823.22
2023-04-23T02:00:48.217Z,100820.20
2023-04-23T02:03:17.902Z,100818.61
2023-04-23T02:05:47.936Z,100818.97
2023-04-23T02:08:16.081Z,100816.86
2023-04-23T02:10:44.879Z,100817.78
2023-04-23T02:13:13.457Z,100821.02
2023-04-23T02:15:42.022Z,100820.85
2023-04-23T02:18:10.780Z,100821.05
2023-04-23T02:20:39.684Z,100820.34
2023-04-23T02:23:09.105Z,100818.20
2023-04-23T02:25:38.055Z,100818.57
2023-04-23T02:28:08.059Z,100817.32
2023-04-23T02:30:37.715Z,100820.54
2023-04-23T02:33:06.544Z,100827.67
2023-04-23T02:35:35.378Z,100827.70
2023-04-23T02:38:03.715Z,100826.64
2023-04-23T02:40:32.383Z,100830.74
2023-04-23T02:43:01.220Z,100826.83
2023-04-23T02:45:29.551Z,100832.36
2023-04-23T02:47:57.835Z,100833.60
2023-04-23T02:50:26.257Z,100832.72
2023-04-23T02:52:54.809Z,100833.24
2023-04-23T02:55:23.096Z,100836.27
2023-04-23T02:57:52.392Z,100835.20
2023-04-23T03:00:21.414Z,100836.08
2023-04-23T03:02:50.506Z,100837.15
2023-04-23T03:05:19.581Z,100829.12
2023-04-23T03:07:47.755Z,100826.63
2023-04-23T03:10:16.314Z,100827.34
2023-04-23T03:12:45.191Z,100823.60
2023-04-23T03:15:14.664Z,100821.83
2023-04-23T03:17:44.900Z,100825.23
2023-04-23T03:20:13.644Z,100824.34
2023-04-23T03:22:42.262Z,100827.01
2023-04-23T03:25:11.374Z,100829.88
2023-04-23T03:27:40.502Z,100823.10
2023-04-23T03:30:10.248Z,100826.31
2023-04-23T03:32:39.979Z,100825.77
2023-04-23T03:35:08.888Z,100827.73
2023-04-23T03:37:37.558Z,100828.83
2023-04-23T03:40:06.991Z,100829.00
2023-04-23T03:42:35.773Z,100827.75
2023-04-23T03:45:05.088Z,100832.92
2023-04-23T03:47:34.528Z,100833.98
2023-04-23T03:50:03.324Z,100834.53
2023-04-23T03:52:32.937Z,100835.61
2023-04-23T03:55:03.054Z,100835.27
2023-04-23T03:57:31.632Z,100841.51
2023-04-23T04:00:00.911Z,100840.27
2023-04-23T04:02:30.425Z,100844.73
2023-04-23T04:05:00.177Z,100842.23
2023-04-23T04:07:29.567Z,100842.61
2023-04-23T04:09:58.231Z,100840.48
2023-04-23T04:12:27.540Z,100844.08
2023-04-23T04:14:56.472Z,100845.50
2023-04-23T04:17:25.710Z,100845.86
2023-04-23T04:19:54.356Z,100848.38
2023-04-23T04:22:23.558Z,100854.61
2023-04-23T04:24:51.971Z,100855.52
2023-04-23T04:27:20.697Z,100859.81
2023-04-23T04:29:49.931Z,100857.50
2023-04-23T04:32:18.581Z,100860.01
2023-04-23T04:34:48.048Z,100855.73
2023-04-23T04:37:16.596Z,100858.77
2023-04-23T04:39:45.271Z,100857.69
2023-04-23T04:42:14.075Z,100856.61
2023-04-23T04:44:44.130Z,100855.54
2023-04-23T04:47:12.833Z,100856.08
2023-04-23T04:49:41.485Z,100863.21
2023-04-23T04:52:09.825Z,100865.38
2023-04-23T04:54:38.724Z,100870.90
2023-04-23T04:57:07.603Z,100873.59
2023-04-23T04:59:37.638Z,100878.95
2023-04-23T05:02:06.893Z,100883.25
2023-04-23T05:04:36.436Z,100884.14
2023-04-23T05:07:06.078Z,100888.61
2023-04-23T05:09:34.325Z,100894.14
2023-04-23T05:12:03.804Z,100894.68
2023-04-23T05:14:32.958Z,100900.59
2023-04-23T05:17:01.217Z,100906.30
2023-04-23T05:19:29.380Z,100912.20
2023-04-23T05:21:58.202Z,100912.02
2023-04-23T05:24:26.881Z,100913.45
2023-04-23T05:26:56.213Z,100914.90
2023-04-23T05:29:25.168Z,100915.07
2023-04-23T05:31:54.230Z,100917.92
2023-04-23T05:34:22.960Z,100917.75
2023-04-23T05:36:51.896Z,100919.34
2023-04-23T05:39:21.364Z,100917.75
2023-04-23T05:41:49.558Z,100919.36
2023-04-23T05:44:18.394Z,100921.85
2023-04-23T05:46:47.030Z,100920.77
2023-04-23T05:49:16.538Z,100923.81
2023-04-23T05:51:46.580Z,100924.36
2023-04-23T05:54:15.850Z,100928.27
2023-04-23T05:56:44.686Z,100931.31
2023-04-23T05:59:13.495Z,100932.02
2023-04-23T06:01:42.795Z,100931.13
2023-04-23T06:04:12.434Z,100933.99
2023-04-23T06:06:42.865Z,100935.06
2023-04-23T06:09:11.306Z,100940.41
2023-04-23T06:11:39.958Z,100944.15
2023-04-23T06:14:08.638Z,100944.68
2023-04-23T06:16:36.932Z,100944.69
2023-04-23T06:19:05.250Z,100949.15
2023-04-23T06:21:34.115Z,100947.89
2023-04-23T06:24:03.590Z,100947.34
2023-04-23T06:26:33.232Z,100953.37
2023-04-23T06:29:02.006Z,100951.79
2023-04-23T06:31:30.255Z,100951.36
2023-04-23T06:34:00.749Z,100953.49
2023-04-23T06:36:29.742Z,100954.91
2023-04-23T06:38:58.372Z,100956.00
2023-04-23T06:41:26.718Z,100955.64
2023-04-23T06:43:56.677Z,100957.77
2023-04-23T06:46:25.669Z,100961.18
2023-04-23T06:48:53.923Z,100962.77
2023-04-23T06:51:25.092Z,100965.95
2023-04-23T06:53:54.235Z,100966.65
2023-04-23T06:56:22.860Z,100970.73
2023-04-23T06:58:51.705Z,100969.27
2023-04-23T07:01:21.406Z,100968.15
2023-04-23T07:03:52.066Z,100971.52
2023-04-23T07:06:20.801Z,100973.45
2023-04-23T07:08:49.378Z,100972.15
2023-04-23T07:11:18.422Z,100977.80
2023-04-23T07:13:47.990Z,100974.88
2023-04-23T07:16:17.066Z,100974.96
2023-04-23T07:18:47.349Z,100979.18
2023-04-23T07:21:17.048Z,100980.73
2023-04-23T07:23:45.810Z,100980.83
2023-04-23T07:26:15.429Z,100985.75
2023-04-23T07:28:43.690Z,100986.02
2023-04-23T07:31:14.284Z,100987.55
2023-04-23T07:33:43.089Z,100990.70
2023-04-23T07:36:11.251Z,100997.27
2023-04-23T07:38:40.045Z,100996.66
2023-04-23T07:41:09.545Z,100995.77
2023-04-23T07:43:38.984Z,101000.82
2023-04-23T07:46:08.275Z,101004.06
2023-04-23T07:48:36.815Z,101001.58
2023-04-23T07:51:06.205Z,101008.86
2023-04-23T07:53:35.382Z,101007.50
2023-04-23T07:56:05.992Z,101008.48
2023-04-23T07:58:35.230Z,101012.30
2023-04-23T08:01:04.253Z,101010.62
2023-04-23T08:03:33.518Z,101009.84
2023-04-23T08:06:03.399Z,101012.41
2023-04-23T08:08:32.224Z,101013.56
2023-04-23T08:11:02.316Z,101010.71
2023-04-23T08:13:31.787Z,101007.54
2023-04-23T08:16:00.613Z,101009.87
2023-04-23T08:18:30.590Z,101011.79
2023-04-23T08:20:59.307Z,101011.73
2023-04-23T08:23:28.062Z,101013.16
2023-04-23T08:25:57.778Z,101008.61
2023-04-23T08:28:26.040Z,101008.20
2023-04-23T08:30:54.717Z,101013.33
2023-04-23T08:33:23.334Z,101014.32
2023-04-23T08:35:52.043Z,101013.92
2023-04-23T08:38:21.097Z,101010.91
2023-04-23T08:40:56.462Z,101014.70
2023-04-23T08:43:33.935Z,101010.55
2023-04-23T08:46:04.922Z,101014.39
2023-04-23T08:48:34.768Z,101016.27
2023-04-23T08:51:04.963Z,101014.41
2023-04-23T08:53:33.213Z,101015.84
2023-04-23T08:56:03.079Z,101016.91
2023-04-23T08:58:33.806Z,101022.92
2023-04-23T09:01:03.608Z,101023.41
2023-04-23T09:03:32.181Z,101023.63
2023-04-23T09:06:01.922Z,101020.50
2023-04-23T09:08:32.353Z,101021.33
2023-04-23T09:11:02.116Z,101021.95
2023-04-23T09:13:31.930Z,101022.08
2023-04-23T09:16:01.020Z,101026.48
2023-04-23T09:18:29.908Z,101027.81
2023-04-23T09:20:58.194Z,101028.59
2023-04-23T09:23:26.527Z,101028.32
2023-04-23T09:25:56.976Z,101027.92
2023-04-23T09:28:35.661Z,101023.92
2023-04-23T09:31:08.295Z,101030.00
2023-04-23T09:33:37.543Z,101030.00
2023-04-23T09:36:16.174Z,101029.11
2023-04-23T09:38:44.938Z,101023.30
2023-04-23T09:41:27.412Z,101020.03
2023-04-23T09:43:57.504Z,101024.23
2023-04-23T09:46:37.465Z,101023.70
2023-04-23T09:49:08.470Z,101020.02
2023-04-23T09:51:43.311Z,101023.99
2023-04-23T09:54:21.822Z,101020.50
2023-04-23T09:56:52.055Z,101018.88
2023-04-23T09:59:35.515Z,101025.08
2023-04-23T10:02:12.767Z,101027.52
2023-04-23T10:04:41.813Z,101025.79
2023-04-23T10:07:17.896Z,101026.09
2023-04-23T10:09:48.668Z,101019.85
2023-04-23T10:14:49.689Z,101018.48
2023-04-23T10:17:18.520Z,101017.33
2023-04-23T10:19:50.212Z,101014.38
2023-04-23T10:22:21.887Z,101012.64
2023-04-23T10:24:55.448Z,101008.38
2023-04-23T10:27:40.515Z,101014.15
2023-04-23T10:30:17.508Z,101010.64
2023-04-23T10:32:49.167Z,101016.27
2023-04-23T10:35:18.571Z,101015.02
2023-04-23T10:37:48.811Z,101017.99
2023-04-23T10:40:25.092Z,101016.56
2023-04-23T10:42:53.797Z,101013.79
2023-04-23T10:45:25.659Z,101008.22
2023-04-23T10:47:55.284Z,101007.13
2023-04-23T10:50:26.881Z,101004.24
2023-04-23T10:52:56.494Z,101004.86
2023-04-23T10:55:27.686Z,101005.86
2023-04-23T10:58:03.515Z,101002.88
2023-04-23T11:00:46.272Z,101006.73
2023-04-23T11:03:39.761Z,101001.48
2023-04-23T11:06:14.954Z,101002.88
2023-04-23T11:08:54.334Z,100998.05
2023-04-23T11:11:40.405Z,101002.27
2023-04-23T11:14:13.051Z,100996.56
2023-04-23T11:16:41.925Z,100996.34
2023-04-23T11:19:12.443Z,100994.66
2023-04-23T11:22:07.145Z,100986.60
2023-04-23T11:24:41.352Z,100988.51
2023-04-23T11:27:12.410Z,100993.09
2023-04-23T11:29:43.277Z,100995.53
2023-04-23T11:32:18.028Z,100987.97
2023-04-23T11:34:48.513Z,100986.35
2023-04-23T11:37:18.472Z,100993.59
2023-04-23T11:39:46.916Z,100992.05
2023-04-23T11:42:17.131Z,100976.92
2023-04-23T11:44:46.805Z,100977.83
2023-04-23T11:47:16.634Z,100973.98
2023-04-23T11:49:46.115Z,100966.66
2023-04-23T11:52:14.839Z,100972.00
2023-04-23T11:54:43.614Z,100968.95
2023-04-23T11:57:12.427Z,100971.83
2023-04-23T11:59:41.107Z,100971.13
2023-04-23T12:02:09.733Z,100960.59
2023-04-23T12:04:41.046Z,100956.48
2023-04-23T12:07:19.596Z,100954.03
2023-04-23T12:09:51.783Z,100952.71
2023-04-23T12:12:20.774Z,100948.43
2023-04-23T12:14:50.018Z,100947.02
2023-04-23T12:17:22.073Z,100945.25
2023-04-23T12:19:50.983Z,100944.16
2023-04-23T12:22:27.401Z,100948.39
2023-04-23T12:24:56.111Z,100938.91
2023-04-23T12:27:26.039Z,100947.95
2023-04-23T12:30:03.475Z,100947.62
2023-04-23T12:32:35.091Z,100947.10
2023-04-23T12:35:04.589Z,100947.85
2023-04-23T12:37:37.140Z,100945.73
2023-04-23T12:40:06.846Z,100944.45
2023-04-23T12:42:35.451Z,100949.80
2023-04-23T12:45:09.370Z,100949.10
2023-04-23T12:47:38.215Z,100947.05
2023-04-23T12:50:07.050Z,100945.64
2023-04-23T12:52:35.969Z,100945.14
2023-04-23T12:55:04.645Z,100944.64
2023-04-23T12:57:33.395Z,100943.64
2023-04-23T13:00:01.589Z,100944.00
2023-04-23T13:02:31.547Z,100941.25
2023-04-23T13:05:00.748Z,100937.76
2023-04-23T13:07:30.105Z,100933.35
2023-04-23T13:10:00.838Z,100936.64
2023-04-23T13:12:29.498Z,100938.04
2023-04-23T13:14:59.145Z,100937.89
2023-04-23T13:17:27.407Z,100933.76
2023-04-23T13:19:56.197Z,100930.66
2023-04-23T13:22:24.338Z,100927.65
2023-04-23T13:24:52.483Z,100927.17
2023-04-23T13:27:20.697Z,100929.64
2023-04-23T13:29:49.422Z,100929.91
2023-04-23T13:32:18.720Z,100925.67
2023-04-23T13:34:48.652Z,100926.11
2023-04-23T13:37:18.072Z,100930.80
2023-04-23T13:39:46.972Z,100926.52
2023-04-23T13:42:18.984Z,100925.31
2023-04-23T13:44:47.161Z,100922.10
2023-04-23T13:47:15.359Z,100927.42
2023-04-23T13:49:44.139Z,100927.27
2023-04-23T13:52:12.837Z,100919.48
2023-04-23T13:54:41.119Z,100919.38
2023-04-23T13:57:09.684Z,100923.17
2023-04-23T13:59:37.919Z,100917.80
2023-04-23T14:02:07.890Z,100915.61
2023-04-23T14:04:36.214Z,100913.23
2023-04-23T14:07:04.684Z,100909.17
2023-04-23T14:09:32.990Z,100909.98
2023-04-23T14:12:01.230Z,100910.35
2023-04-23T14:14:29.587Z,100908.14
2023-04-23T14:16:57.798Z,100908.17
2023-04-23T14:19:26.315Z,100902.73
2023-04-23T14:21:54.582Z,100897.77
2023-04-23T14:24:35.062Z,100902.63
2023-04-23T14:27:05.161Z,100898.56
2023-04-23T14:29:51.606Z,100895.45
2023-04-23T14:32:19.737Z,100894.42
2023-04-23T14:34:48.558Z,100887.34
2023-04-23T14:37:18.044Z,100884.52
2023-04-23T14:39:46.799Z,100886.18
2023-04-23T14:42:14.956Z,100884.88
2023-04-23T14:44:43.748Z,100883.97
2023-04-23T14:47:11.934Z,100877.36
2023-04-23T14:49:41.132Z,100874.63
2023-04-23T14:52:09.904Z,100872.39
2023-04-23T14:54:38.044Z,100870.11
2023-04-23T14:57:07.746Z,100867.66
2023-04-23T14:59:38.096Z,100870.70
2023-04-23T15:02:07.177Z,100866.55
2023-04-23T15:04:36.177Z,100870.33
2023-04-23T15:07:04.985Z,100867.74
2023-04-23T15:09:33.645Z,100864.80
2023-04-23T15:12:01.785Z,100870.44
2023-04-23T15:14:37.640Z,100869.90
2023-04-23T15:17:05.829Z,100869.88
2023-04-23T15:19:34.034Z,100871.75
2023-04-23T15:22:02.353Z,100870.09
2023-04-23T15:24:32.570Z,100864.48
2023-04-23T15:27:01.237Z,100869.61
2023-04-23T15:29:30.396Z,100872.95
2023-04-23T15:31:58.660Z,100870.81
2023-04-23T15:34:27.562Z,100877.31
2023-04-23T15:36:56.434Z,100878.86
2023-04-23T15:39:25.813Z,100878.74
2023-04-23T15:41:54.058Z,100879.52
2023-04-23T15:44:23.607Z,100876.09
2023-04-23T15:46:52.466Z,100880.17
2023-04-23T15:49:20.711Z,100886.14
2023-04-23T15:51:49.451Z,100882.04
2023-04-23T15:54:17.682Z,100880.77
2023-04-23T15:56:46.402Z,100874.64
2023-04-23T15:59:15.236Z,100871.39
2023-04-23T16:01:44.070Z,100869.65
2023-04-23T16:04:12.794Z,100867.18
2023-04-23T16:06:42.599Z,100864.36
2023-04-23T16:09:11.963Z,100859.83
2023-04-23T16:11:40.738Z,100865.37
2023-04-23T16:14:10.280Z,100868.64
2023-04-23T16:16:38.830Z,100872.14
2023-04-23T16:19:07.379Z,100871.01
2023-04-23T16:21:37.382Z,100875.76
2023-04-23T16:24:07.937Z,100874.06
2023-04-23T16:26:36.699Z,100872.43
2023-04-23T16:29:21.313Z,100871.42
2023-04-23T16:31:50.894Z,100877.16
2023-04-23T16:34:19.281Z,100878.14
2023-04-23T16:36:48.638Z,100874.16
2023-04-23T16:39:17.062Z,100874.38
2023-04-23T16:41:45.900Z,100875.80
2023-04-23T16:44:14.180Z,100877.03
2023-04-23T16:46:45.407Z,100877.44
2023-04-23T16:49:14.120Z,100874.09
2023-04-23T16:51:42.692Z,100872.89
2023-04-23T16:54:10.876Z,100875.41
2023-04-23T16:56:40.397Z,100874.77
2023-04-23T16:59:08.762Z,100875.63
2023-04-23T17:01:37.131Z,100873.43
2023-04-23T17:04:07.091Z,100865.56
2023-04-23T17:06:36.050Z,100867.59
2023-04-23T17:09:04.630Z,100866.69
2023-04-23T17:11:33.675Z,100861.98
2023-04-23T17:14:02.692Z,100865.84
2023-04-23T17:16:31.019Z,100866.69
2023-04-23T17:18:59.818Z,100865.81
2023-04-23T17:21:28.123Z,100865.39
2023-04-23T17:23:57.445Z,100868.21
2023-04-23T17:26:26.712Z,100866.98
2023-04-23T17:28:56.525Z,100863.42
2023-04-23T17:31:25.296Z,100861.66
2023-04-23T17:33:54.397Z,100867.58
2023-04-23T17:36:23.034Z,100868.91
2023-04-23T17:38:51.913Z,100870.20
2023-04-23T17:41:20.762Z,100865.38
2023-04-23T17:43:50.078Z,100859.70
2023-04-23T17:46:18.411Z,100860.54
2023-04-23T17:48:47.544Z,100860.30
2023-04-23T17:51:16.696Z,100859.15
2023-04-23T17:53:45.660Z,100859.07
2023-04-23T17:56:15.923Z,100864.51
2023-04-23T17:58:44.650Z,100859.10
2023-04-23T18:01:15.035Z,100859.88
2023-04-23T18:03:44.495Z,100860.31
2023-04-23T18:06:12.934Z,100860.95
2023-04-23T18:08:42.840Z,100858.25
2023-04-23T18:11:11.954Z,100857.08
2023-04-23T18:13:42.541Z,100853.89
2023-04-23T18:16:12.629Z,100853.46
2023-04-23T18:18:41.527Z,100854.16
2023-04-23T18:21:09.770Z,100855.66
2023-04-23T18:23:38.434Z,100856.13
2023-04-23T18:26:06.909Z,100852.13
2023-04-23T18:28:36.602Z,100853.74
2023-04-23T18:31:05.164Z,100854.54
2023-04-23T18:33:47.931Z,100856.59
2023-04-23T18:36:30.650Z,100856.05
2023-04-23T18:39:00.045Z,100852.84
2023-04-23T18:41:29.023Z,100852.92
2023-04-23T18:43:57.740Z,100854.91
2023-04-23T18:46:26.760Z,100858.43
2023-04-23T18:49:14.277Z,100861.95
2023-04-23T18:51:50.949Z,100864.95
2023-04-23T18:54:21.409Z,100865.41
2023-04-23T18:56:50.711Z,100865.66
2023-04-23T18:59:19.517Z,100865.68
2023-04-23T19:01:48.668Z,100863.73
2023-04-23T19:04:17.193Z,100864.85
2023-04-23T19:06:46.303Z,100869.31
2023-04-23T19:09:14.724Z,100874.39
2023-04-23T19:11:43.443Z,100874.13
2023-04-23T19:14:11.557Z,100876.93
2023-04-23T19:16:40.862Z,100875.98
2023-04-23T19:19:08.995Z,100877.48
2023-04-23T19:21:37.276Z,100875.51
2023-04-23T19:24:07.055Z,100876.45
2023-04-23T19:26:35.651Z,100876.36
2023-04-23T19:29:04.331Z,100878.54
2023-04-23T19:31:33.369Z,100881.42
2023-04-23T19:34:02.180Z,100881.92
2023-04-23T19:36:30.332Z,100882.40
2023-04-23T19:39:00.212Z,100890.25
2023-04-23T19:41:30.098Z,100893.83
2023-04-23T19:43:58.468Z,100897.23
2023-04-23T19:46:28.358Z,100901.85
2023-04-23T19:48:57.120Z,100897.32
2023-04-23T19:51:29.830Z,100900.40
2023-04-23T19:53:59.341Z,100903.14
2023-04-23T19:56:28.735Z,100908.33
2023-04-23T19:58:57.816Z,100914.42
2023-04-23T20:01:27.594Z,100918.43
2023-04-23T20:03:57.153Z,100920.59
2023-04-23T20:06:28.058Z,100922.38
2023-04-23T20:08:56.353Z,100925.85
2023-04-23T20:11:26.262Z,100928.13
2023-04-23T20:13:55.864Z,100932.15
2023-04-23T20:16:25.303Z,100933.15
2023-04-23T20:18:53.444Z,100937.33
2023-04-23T20:21:23.338Z,100939.17
2023-04-23T20:23:52.034Z,100945.48
2023-04-23T20:26:21.099Z,100946.02
2023-04-23T20:28:50.073Z,100946.23
2023-04-23T20:31:21.380Z,100953.27
2023-04-23T20:33:50.446Z,100951.53
2023-04-23T20:36:19.439Z,100956.21
2023-04-23T20:38:48.530Z,100957.98
2023-04-23T20:41:17.180Z,100955.45
2023-04-23T20:43:45.947Z,100954.20
2023-04-23T20:46:15.319Z,100956.52
2023-04-23T20:48:45.059Z,100959.02
2023-04-23T20:51:14.731Z,100958.68
2023-04-23T20:53:46.027Z,100954.40
2023-04-23T20:56:15.805Z,100955.70
2023-04-23T20:58:46.241Z,100952.11
2023-04-23T21:01:17.280Z,100952.11
2023-04-23T21:03:47.353Z,100956.25
2023-04-23T21:06:17.758Z,100951.92
2023-04-23T21:08:47.315Z,100960.41
2023-04-23T21:11:18.179Z,100963.81
2023-04-23T21:13:47.678Z,100958.94
2023-04-23T21:16:16.955Z,100954.98
2023-04-23T21:18:45.846Z,100954.80
2023-04-23T21:21:15.287Z,100957.30
2023-04-23T21:23:44.576Z,100960.20
2023-04-23T21:26:13.164Z,100967.11
2023-04-23T21:28:42.439Z,100965.74
2023-04-23T21:31:17.931Z,100967.79
2023-04-23T21:33:46.529Z,100964.80
2023-04-23T21:36:16.069Z,100966.73
2023-04-23T21:38:44.190Z,100971.41
2023-04-23T21:41:14.057Z,100969.05
2023-04-23T21:43:42.710Z,100971.19
2023-04-23T21:46:12.074Z,100971.19
2023-04-23T21:48:40.493Z,100968.55
2023-04-23T21:51:08.819Z,100968.44
2023-04-23T21:53:38.075Z,100968.42
2023-04-23T21:56:08.324Z,100965.35
2023-04-23T21:58:38.130Z,100963.54
2023-04-23T22:01:06.409Z,100965.16
2023-04-23T22:03:35.408Z,100965.90
2023-04-23T22:06:07.310Z,100969.29
2023-04-23T22:08:36.355Z,100972.14
2023-04-23T22:11:06.281Z,100966.47
2023-04-23T22:13:35.451Z,100971.73
2023-04-23T22:16:10.682Z,100975.15
2023-04-23T22:18:44.966Z,100970.38
2023-04-23T22:21:13.909Z,100975.83
2023-04-23T22:23:42.633Z,100974.79
2023-04-23T22:26:11.962Z,100976.80
2023-04-23T22:28:43.028Z,100971.67
2023-04-23T22:31:12.176Z,100971.90
2023-04-23T22:33:41.525Z,100970.86
2023-04-23T22:36:10.729Z,100970.55
2023-04-23T22:38:40.248Z,100968.95
2023-04-23T22:41:08.868Z,100965.58
2023-04-23T22:43:37.727Z,100964.69
2023-04-23T22:46:06.775Z,100964.48
2023-04-23T22:48:35.706Z,100967.19
2023-04-23T22:51:05.219Z,100965.23
2023-04-23T22:53:41.603Z,100964.89
2023-04-23T22:56:12.986Z,100961.33
2023-04-23T22:58:41.223Z,100962.76
2023-04-23T23:01:10.412Z,100964.20
2023-04-23T23:03:38.689Z,100960.45
2023-04-23T23:06:07.559Z,100961.00
2023-04-23T23:08:37.215Z,100961.76
2023-04-23T23:11:07.022Z,100961.06
2023-04-23T23:13:35.251Z,100965.20
2023-04-23T23:16:04.333Z,100960.42
2023-04-23T23:18:33.733Z,100963.45
2023-04-23T23:21:02.476Z,100964.37
2023-04-23T23:23:31.801Z,100967.07
2023-04-23T23:26:00.563Z,100968.68
2023-04-23T23:28:29.867Z,100968.16
2023-04-23T23:30:59.372Z,100968.21
2023-04-23T23:33:28.662Z,100966.62
2023-04-23T23:35:57.613Z,100966.65
2023-04-23T23:38:25.859Z,100968.10
2023-04-23T23:40:54.587Z,100966.68
2023-04-23T23:43:23.293Z,100967.98
2023-04-23T23:45:52.466Z,100973.03
2023-04-23T23:48:22.060Z,100978.98
2023-04-23T23:50:50.930Z,100969.33
2023-04-23T23:53:19.696Z,100968.77
2023-04-23T23:55:48.321Z,100971.31
2023-04-23T23:58:16.876Z,100971.87
